Weather at San Diego International Airport

Public forecast

Using degrees Fahrenheit for public forecast. Weather courtesy of forecast.io.

Current aviation weather report (METAR) for San Diego International Airport

Retrieved 2021/04/11 08:51 UTC (35 minutes ago):

KSAN 110851Z 00000KT 8SM SCT016 15/11 A2983 RMK AO2 SLP099 T01500106 58026

Aviation forecast (TAF) for San Diego International Airport

Retrieved 2021/04/11 06:22 UTC (3 hours ago):

TAF KSAN 110520Z 1106/1212 18006KT P6SM OVC014 FM111700 20005KT P6SM SCT020 FM112000 26009KT P6SM SCT020 SCT250 FM120200 26005KT P6SM SCT015 SCT250 FM120400 20005KT P6SM BKN015